Portada
METAR-TAF:

METAR-TAF

Aeropuertos :

Kristianstad, Suecia

latitud: 55-55N, longitud: 014-05E, altitud: 23 m

Observación

El informe se hizo hace 15 minutos, a las 00:50 UTC
Viento 3 kt del sur
Temperatura 5°C
Humedad 100%
Presión 1003 hPa
Visibilidad: 0250 m

METAR: ESMK 070050Z AUTO 19003KT 0250 R01/P2000N R19/P2000N NCD 05/05 Q1003

Hora: 03:05 (01:05 UTC)


TAF: falta

Observaciones y pronósticos meteorológicos de más de 4000 aeropuertos (mensajes METAR y TAF).

Los puntos amarillos y rojos representan las estaciones disponibles.

Ponga el ratón en el punto deseado para ver el nombre de la estación.

Haga clic para ver las observaciones y los pronósticos meteorológicos.

Para cambiar el mapa : haga clic en los botones verdes con una cruz de color negro para hacer un zoom, en el botón verde con un guión para alejar o en las flechas verdes para mapas adyacentes.


METAR-TAF: